sensor_id;sensor_type;location;lat;lon;timestamp;P1;durP1;ratioP1;P2;durP2;ratioP2
7773;SDS011;3931;42.260;23.116;2023-03-01T00:00:23;2.93;;;2.30;;
7773;SDS011;3931;42.260;23.116;2023-03-01T00:02:49;3.00;;;2.10;;
7773;SDS011;3931;42.260;23.116;2023-03-01T00:05:16;3.13;;;2.00;;
7773;SDS011;3931;42.260;23.116;2023-03-01T00:07:42;2.40;;;1.73;;
7773;SDS011;3931;42.260;23.116;2023-03-01T00:10:09;5.87;;;2.90;;
7773;SDS011;3931;42.260;23.116;2023-03-01T00:12:36;2.57;;;1.93;;
7773;SDS011;3931;42.260;23.116;2023-03-01T00:15:02;1.70;;;1.40;;
7773;SDS011;3931;42.260;23.116;2023-03-01T00:17:29;1.97;;;1.43;;
7773;SDS011;3931;42.260;23.116;2023-03-01T00:19:56;2.20;;;1.83;;
7773;SDS011;3931;42.260;23.116;2023-03-01T00:22:22;2.43;;;1.87;;
7773;SDS011;3931;42.260;23.116;2023-03-01T00:24:49;8.77;;;3.77;;
7773;SDS011;3931;42.260;23.116;2023-03-01T00:27:15;1.70;;;1.30;;
7773;SDS011;3931;42.260;23.116;2023-03-01T00:29:41;1.80;;;1.40;;
7773;SDS011;3931;42.260;23.116;2023-03-01T00:32:07;1.40;;;1.30;;
7773;SDS011;3931;42.260;23.116;2023-03-01T00:34:33;2.93;;;1.60;;
7773;SDS011;3931;42.260;23.116;2023-03-01T00:36:59;4.57;;;2.50;;
7773;SDS011;3931;42.260;23.116;2023-03-01T00:39:30;10.33;;;3.07;;
7773;SDS011;3931;42.260;23.116;2023-03-01T00:41:57;6.90;;;3.30;;
7773;SDS011;3931;42.260;23.116;2023-03-01T00:44:23;18.03;;;2.90;;
7773;SDS011;3931;42.260;23.116;2023-03-01T00:46:49;8.47;;;3.63;;
7773;SDS011;3931;42.260;23.116;2023-03-01T00:49:15;14.93;;;2.57;;
7773;SDS011;3931;42.260;23.116;2023-03-01T00:51:41;7.93;;;4.40;;
7773;SDS011;3931;42.260;23.116;2023-03-01T00:54:08;4.53;;;3.30;;
7773;SDS011;3931;42.260;23.116;2023-03-01T00:56:34;3.50;;;2.50;;
7773;SDS011;3931;42.260;23.116;2023-03-01T00:59:01;2.87;;;2.27;;
7773;SDS011;3931;42.260;23.116;2023-03-01T01:01:28;3.27;;;2.20;;
7773;SDS011;3931;42.260;23.116;2023-03-01T01:03:56;2.03;;;1.63;;
7773;SDS011;3931;42.260;23.116;2023-03-01T01:06:23;2.57;;;1.70;;
7773;SDS011;3931;42.260;23.116;2023-03-01T01:08:51;2.00;;;1.57;;
7773;SDS011;3931;42.260;23.116;2023-03-01T01:11:18;4.47;;;2.00;;
7773;SDS011;3931;42.260;23.116;2023-03-01T01:13:45;5.57;;;1.80;;
7773;SDS011;3931;42.260;23.116;2023-03-01T01:16:13;2.77;;;1.90;;
7773;SDS011;3931;42.260;23.116;2023-03-01T01:18:39;7.20;;;1.73;;
7773;SDS011;3931;42.260;23.116;2023-03-01T01:21:07;1.47;;;1.30;;
7773;SDS011;3931;42.260;23.116;2023-03-01T01:23:35;1.50;;;1.40;;
7773;SDS011;3931;42.260;23.116;2023-03-01T01:26:05;6.60;;;2.20;;
7773;SDS011;3931;42.260;23.116;2023-03-01T01:28:33;3.40;;;2.10;;
7773;SDS011;3931;42.260;23.116;2023-03-01T01:30:59;1.73;;;1.50;;
7773;SDS011;3931;42.260;23.116;2023-03-01T01:33:26;3.20;;;1.80;;
7773;SDS011;3931;42.260;23.116;2023-03-01T01:35:52;2.27;;;1.60;;
7773;SDS011;3931;42.260;23.116;2023-03-01T01:38:19;1.83;;;1.50;;
7773;SDS011;3931;42.260;23.116;2023-03-01T01:40:46;1.83;;;1.60;;
7773;SDS011;3931;42.260;23.116;2023-03-01T01:43:16;3.10;;;2.00;;
7773;SDS011;3931;42.260;23.116;2023-03-01T01:45:45;2.23;;;1.60;;
7773;SDS011;3931;42.260;23.116;2023-03-01T01:48:13;2.13;;;1.50;;
7773;SDS011;3931;42.260;23.116;2023-03-01T01:50:43;3.70;;;2.23;;
7773;SDS011;3931;42.260;23.116;2023-03-01T01:53:10;4.23;;;1.53;;
7773;SDS011;3931;42.260;23.116;2023-03-01T01:55:39;2.40;;;1.57;;
7773;SDS011;3931;42.260;23.116;2023-03-01T01:58:08;2.57;;;1.10;;
7773;SDS011;3931;42.260;23.116;2023-03-01T02:00:36;1.40;;;1.30;;
7773;SDS011;3931;42.260;23.116;2023-03-01T02:03:03;1.50;;;1.40;;
7773;SDS011;3931;42.260;23.116;2023-03-01T02:05:34;1.80;;;1.70;;
7773;SDS011;3931;42.260;23.116;2023-03-01T02:08:04;1.90;;;1.40;;
7773;SDS011;3931;42.260;23.116;2023-03-01T02:10:31;1.63;;;1.40;;
7773;SDS011;3931;42.260;23.116;2023-03-01T02:13:00;1.57;;;1.47;;
7773;SDS011;3931;42.260;23.116;2023-03-01T02:15:27;2.17;;;1.60;;
7773;SDS011;3931;42.260;23.116;2023-03-01T02:17:58;1.70;;;1.60;;
7773;SDS011;3931;42.260;23.116;2023-03-01T02:20:26;1.73;;;1.50;;
7773;SDS011;3931;42.260;23.116;2023-03-01T02:22:56;1.80;;;1.70;;
7773;SDS011;3931;42.260;23.116;2023-03-01T02:25:26;2.23;;;1.80;;
7773;SDS011;3931;42.260;23.116;2023-03-01T02:27:58;1.90;;;1.77;;
7773;SDS011;3931;42.260;23.116;2023-03-01T02:30:34;2.40;;;1.90;;
7773;SDS011;3931;42.260;23.116;2023-03-01T02:33:02;3.60;;;2.57;;
7773;SDS011;3931;42.260;23.116;2023-03-01T02:35:29;2.93;;;1.80;;
7773;SDS011;3931;42.260;23.116;2023-03-01T02:37:58;2.03;;;1.50;;
7773;SDS011;3931;42.260;23.116;2023-03-01T02:40:25;6.77;;;3.27;;
7773;SDS011;3931;42.260;23.116;2023-03-01T02:42:54;5.40;;;2.20;;
7773;SDS011;3931;42.260;23.116;2023-03-01T02:45:22;4.17;;;2.97;;
7773;SDS011;3931;42.260;23.116;2023-03-01T02:47:50;2.13;;;1.93;;
7773;SDS011;3931;42.260;23.116;2023-03-01T02:50:22;1.97;;;1.80;;
7773;SDS011;3931;42.260;23.116;2023-03-01T02:53:00;3.20;;;2.20;;
7773;SDS011;3931;42.260;23.116;2023-03-01T02:55:30;2.60;;;2.00;;
7773;SDS011;3931;42.260;23.116;2023-03-01T02:57:56;2.37;;;1.93;;
7773;SDS011;3931;42.260;23.116;2023-03-01T03:00:23;2.50;;;2.30;;
7773;SDS011;3931;42.260;23.116;2023-03-01T03:02:54;3.57;;;2.13;;
7773;SDS011;3931;42.260;23.116;2023-03-01T03:05:22;2.47;;;2.00;;
7773;SDS011;3931;42.260;23.116;2023-03-01T03:07:51;3.30;;;2.63;;
7773;SDS011;3931;42.260;23.116;2023-03-01T03:10:18;2.67;;;2.10;;
7773;SDS011;3931;42.260;23.116;2023-03-01T03:12:48;2.43;;;2.07;;
7773;SDS011;3931;42.260;23.116;2023-03-01T03:15:16;4.33;;;2.77;;
7773;SDS011;3931;42.260;23.116;2023-03-01T03:17:42;5.60;;;3.00;;
7773;SDS011;3931;42.260;23.116;2023-03-01T03:20:11;1.73;;;1.63;;
7773;SDS011;3931;42.260;23.116;2023-03-01T03:22:44;2.63;;;2.43;;
7773;SDS011;3931;42.260;23.116;2023-03-01T03:25:10;4.30;;;3.33;;
7773;SDS011;3931;42.260;23.116;2023-03-01T03:27:36;3.07;;;2.77;;
7773;SDS011;3931;42.260;23.116;2023-03-01T03:30:03;3.67;;;3.20;;
7773;SDS011;3931;42.260;23.116;2023-03-01T03:32:34;3.50;;;2.90;;
7773;SDS011;3931;42.260;23.116;2023-03-01T03:35:00;2.73;;;2.20;;
7773;SDS011;3931;42.260;23.116;2023-03-01T03:37:27;2.70;;;2.23;;
7773;SDS011;3931;42.260;23.116;2023-03-01T03:40:12;2.00;;;1.63;;
7773;SDS011;3931;42.260;23.116;2023-03-01T03:42:40;2.20;;;2.00;;
7773;SDS011;3931;42.260;23.116;2023-03-01T03:45:07;2.20;;;2.00;;
7773;SDS011;3931;42.260;23.116;2023-03-01T03:47:33;2.57;;;1.97;;
7773;SDS011;3931;42.260;23.116;2023-03-01T03:49:59;1.90;;;1.77;;
7773;SDS011;3931;42.260;23.116;2023-03-01T03:52:25;2.70;;;1.67;;
7773;SDS011;3931;42.260;23.116;2023-03-01T03:54:52;2.33;;;1.83;;
7773;SDS011;3931;42.260;23.116;2023-03-01T03:57:18;2.90;;;1.73;;
7773;SDS011;3931;42.260;23.116;2023-03-01T03:59:46;2.17;;;1.97;;
7773;SDS011;3931;42.260;23.116;2023-03-01T04:02:12;1.90;;;1.50;;
7773;SDS011;3931;42.260;23.116;2023-03-01T04:04:47;3.20;;;2.03;;
7773;SDS011;3931;42.260;23.116;2023-03-01T04:07:14;3.43;;;1.90;;
7773;SDS011;3931;42.260;23.116;2023-03-01T04:09:40;2.57;;;1.83;;
7773;SDS011;3931;42.260;23.116;2023-03-01T04:12:08;2.23;;;1.97;;
7773;SDS011;3931;42.260;23.116;2023-03-01T04:14:34;1.77;;;1.67;;
7773;SDS011;3931;42.260;23.116;2023-03-01T04:17:00;1.73;;;1.60;;
7773;SDS011;3931;42.260;23.116;2023-03-01T04:19:29;1.63;;;1.53;;
7773;SDS011;3931;42.260;23.116;2023-03-01T04:22:00;2.60;;;1.93;;
7773;SDS011;3931;42.260;23.116;2023-03-01T04:24:32;2.27;;;1.63;;
7773;SDS011;3931;42.260;23.116;2023-03-01T04:26:58;1.63;;;1.47;;
7773;SDS011;3931;42.260;23.116;2023-03-01T04:29:25;1.83;;;1.63;;
7773;SDS011;3931;42.260;23.116;2023-03-01T04:31:51;3.23;;;2.20;;
7773;SDS011;3931;42.260;23.116;2023-03-01T04:34:17;1.97;;;1.83;;
7773;SDS011;3931;42.260;23.116;2023-03-01T04:36:44;1.20;;;1.10;;
7773;SDS011;3931;42.260;23.116;2023-03-01T04:39:10;1.60;;;1.50;;
7773;SDS011;3931;42.260;23.116;2023-03-01T04:41:37;2.63;;;1.50;;
7773;SDS011;3931;42.260;23.116;2023-03-01T04:44:04;1.50;;;1.40;;
7773;SDS011;3931;42.260;23.116;2023-03-01T04:46:31;3.47;;;2.30;;
7773;SDS011;3931;42.260;23.116;2023-03-01T04:48:57;3.67;;;2.03;;
7773;SDS011;3931;42.260;23.116;2023-03-01T04:51:24;2.00;;;1.73;;
7773;SDS011;3931;42.260;23.116;2023-03-01T04:53:50;2.10;;;1.90;;
7773;SDS011;3931;42.260;23.116;2023-03-01T04:56:16;1.73;;;1.63;;
7773;SDS011;3931;42.260;23.116;2023-03-01T04:58:43;2.10;;;2.00;;
7773;SDS011;3931;42.260;23.116;2023-03-01T05:01:10;3.10;;;2.20;;
7773;SDS011;3931;42.260;23.116;2023-03-01T05:03:41;4.60;;;2.60;;
7773;SDS011;3931;42.260;23.116;2023-03-01T05:06:08;2.93;;;2.17;;
7773;SDS011;3931;42.260;23.116;2023-03-01T05:08:34;3.30;;;2.20;;
7773;SDS011;3931;42.260;23.116;2023-03-01T05:11:02;2.70;;;2.07;;
7773;SDS011;3931;42.260;23.116;2023-03-01T05:13:28;2.40;;;2.20;;
7773;SDS011;3931;42.260;23.116;2023-03-01T05:15:55;1.87;;;1.63;;
7773;SDS011;3931;42.260;23.116;2023-03-01T05:18:22;2.80;;;2.23;;
7773;SDS011;3931;42.260;23.116;2023-03-01T05:20:51;2.10;;;1.90;;
7773;SDS011;3931;42.260;23.116;2023-03-01T05:23:18;2.00;;;1.80;;
7773;SDS011;3931;42.260;23.116;2023-03-01T05:25:44;2.83;;;1.90;;
7773;SDS011;3931;42.260;23.116;2023-03-01T05:28:11;4.93;;;2.97;;
7773;SDS011;3931;42.260;23.116;2023-03-01T05:30:38;14.67;;;6.97;;
7773;SDS011;3931;42.260;23.116;2023-03-01T05:33:04;4.33;;;2.87;;
7773;SDS011;3931;42.260;23.116;2023-03-01T05:35:35;3.33;;;2.40;;
7773;SDS011;3931;42.260;23.116;2023-03-01T05:38:02;3.77;;;2.50;;
7773;SDS011;3931;42.260;23.116;2023-03-01T05:40:28;5.30;;;2.40;;
7773;SDS011;3931;42.260;23.116;2023-03-01T05:42:55;2.30;;;2.10;;
7773;SDS011;3931;42.260;23.116;2023-03-01T05:45:22;4.47;;;2.17;;
7773;SDS011;3931;42.260;23.116;2023-03-01T05:47:50;2.40;;;1.97;;
7773;SDS011;3931;42.260;23.116;2023-03-01T05:50:17;2.40;;;1.53;;
7773;SDS011;3931;42.260;23.116;2023-03-01T05:52:45;2.10;;;1.90;;
7773;SDS011;3931;42.260;23.116;2023-03-01T05:55:12;2.43;;;2.07;;
7773;SDS011;3931;42.260;23.116;2023-03-01T05:57:38;3.30;;;2.77;;
7773;SDS011;3931;42.260;23.116;2023-03-01T06:00:05;3.00;;;2.53;;
7773;SDS011;3931;42.260;23.116;2023-03-01T06:02:32;4.10;;;2.70;;
7773;SDS011;3931;42.260;23.116;2023-03-01T06:04:58;4.73;;;2.90;;
7773;SDS011;3931;42.260;23.116;2023-03-01T06:07:24;4.03;;;3.63;;
7773;SDS011;3931;42.260;23.116;2023-03-01T06:09:50;8.50;;;5.83;;
7773;SDS011;3931;42.260;23.116;2023-03-01T06:12:17;6.50;;;4.30;;
7773;SDS011;3931;42.260;23.116;2023-03-01T06:14:43;21.70;;;3.07;;
7773;SDS011;3931;42.260;23.116;2023-03-01T06:17:10;4.13;;;3.50;;
7773;SDS011;3931;42.260;23.116;2023-03-01T06:19:36;2.30;;;2.10;;
7773;SDS011;3931;42.260;23.116;2023-03-01T06:22:02;4.00;;;3.47;;
7773;SDS011;3931;42.260;23.116;2023-03-01T06:24:28;2.93;;;2.63;;
7773;SDS011;3931;42.260;23.116;2023-03-01T06:26:55;3.60;;;3.00;;
7773;SDS011;3931;42.260;23.116;2023-03-01T06:29:21;3.87;;;3.00;;
7773;SDS011;3931;42.260;23.116;2023-03-01T06:31:47;3.30;;;2.73;;
7773;SDS011;3931;42.260;23.116;2023-03-01T06:34:14;3.30;;;2.50;;
7773;SDS011;3931;42.260;23.116;2023-03-01T06:36:40;5.83;;;3.10;;
7773;SDS011;3931;42.260;23.116;2023-03-01T06:39:06;3.03;;;2.67;;
7773;SDS011;3931;42.260;23.116;2023-03-01T06:41:32;4.33;;;2.67;;
7773;SDS011;3931;42.260;23.116;2023-03-01T06:43:58;5.63;;;2.70;;
7773;SDS011;3931;42.260;23.116;2023-03-01T06:46:26;7.27;;;4.60;;
7773;SDS011;3931;42.260;23.116;2023-03-01T06:48:52;16.43;;;4.03;;
7773;SDS011;3931;42.260;23.116;2023-03-01T06:51:18;26.73;;;8.33;;
7773;SDS011;3931;42.260;23.116;2023-03-01T06:53:45;7.30;;;3.90;;
7773;SDS011;3931;42.260;23.116;2023-03-01T06:56:11;10.33;;;4.77;;
7773;SDS011;3931;42.260;23.116;2023-03-01T06:58:37;8.00;;;3.13;;
7773;SDS011;3931;42.260;23.116;2023-03-01T07:01:05;13.57;;;3.93;;
7773;SDS011;3931;42.260;23.116;2023-03-01T07:03:32;3.23;;;2.30;;
7773;SDS011;3931;42.260;23.116;2023-03-01T07:05:58;3.17;;;2.30;;
7773;SDS011;3931;42.260;23.116;2023-03-01T07:08:24;2.70;;;2.20;;
7773;SDS011;3931;42.260;23.116;2023-03-01T07:10:54;8.57;;;2.90;;
7773;SDS011;3931;42.260;23.116;2023-03-01T07:13:20;9.43;;;3.30;;
7773;SDS011;3931;42.260;23.116;2023-03-01T07:15:46;4.73;;;2.17;;
7773;SDS011;3931;42.260;23.116;2023-03-01T07:18:12;3.30;;;2.47;;
7773;SDS011;3931;42.260;23.116;2023-03-01T07:20:39;5.50;;;2.90;;
7773;SDS011;3931;42.260;23.116;2023-03-01T07:23:05;4.40;;;2.40;;
7773;SDS011;3931;42.260;23.116;2023-03-01T07:25:31;6.97;;;2.33;;
7773;SDS011;3931;42.260;23.116;2023-03-01T07:27:58;5.00;;;3.03;;
7773;SDS011;3931;42.260;23.116;2023-03-01T07:30:24;24.63;;;2.90;;
7773;SDS011;3931;42.260;23.116;2023-03-01T07:32:52;5.50;;;3.10;;
7773;SDS011;3931;42.260;23.116;2023-03-01T07:35:18;7.17;;;3.37;;
7773;SDS011;3931;42.260;23.116;2023-03-01T07:37:45;4.23;;;3.00;;
7773;SDS011;3931;42.260;23.116;2023-03-01T07:40:11;16.73;;;3.50;;
7773;SDS011;3931;42.260;23.116;2023-03-01T07:42:38;4.93;;;3.77;;
7773;SDS011;3931;42.260;23.116;2023-03-01T07:45:04;6.37;;;3.50;;
7773;SDS011;3931;42.260;23.116;2023-03-01T07:47:32;8.47;;;2.93;;
7773;SDS011;3931;42.260;23.116;2023-03-01T07:49:58;3.50;;;2.70;;
7773;SDS011;3931;42.260;23.116;2023-03-01T07:52:24;19.37;;;3.27;;
7773;SDS011;3931;42.260;23.116;2023-03-01T07:54:51;2.13;;;1.93;;
7773;SDS011;3931;42.260;23.116;2023-03-01T07:57:17;2.67;;;2.33;;
7773;SDS011;3931;42.260;23.116;2023-03-01T07:59:43;2.33;;;2.10;;
7773;SDS011;3931;42.260;23.116;2023-03-01T08:02:09;3.00;;;2.03;;
7773;SDS011;3931;42.260;23.116;2023-03-01T08:04:36;5.27;;;2.80;;
7773;SDS011;3931;42.260;23.116;2023-03-01T08:07:04;6.63;;;1.83;;
7773;SDS011;3931;42.260;23.116;2023-03-01T08:09:31;13.13;;;3.37;;
7773;SDS011;3931;42.260;23.116;2023-03-01T08:11:57;5.47;;;2.87;;
7773;SDS011;3931;42.260;23.116;2023-03-01T08:14:24;2.60;;;2.30;;
7773;SDS011;3931;42.260;23.116;2023-03-01T08:16:50;3.03;;;2.33;;
7773;SDS011;3931;42.260;23.116;2023-03-01T08:19:16;20.73;;;2.60;;
7773;SDS011;3931;42.260;23.116;2023-03-01T08:21:43;3.00;;;2.50;;
7773;SDS011;3931;42.260;23.116;2023-03-01T08:24:09;11.13;;;2.80;;
7773;SDS011;3931;42.260;23.116;2023-03-01T08:26:35;2.30;;;2.10;;
7773;SDS011;3931;42.260;23.116;2023-03-01T08:29:02;5.03;;;2.50;;
7773;SDS011;3931;42.260;23.116;2023-03-01T08:31:29;8.53;;;3.17;;
7773;SDS011;3931;42.260;23.116;2023-03-01T08:33:57;4.53;;;2.43;;
7773;SDS011;3931;42.260;23.116;2023-03-01T08:36:25;34.57;;;4.67;;
7773;SDS011;3931;42.260;23.116;2023-03-01T08:38:53;5.10;;;2.40;;
7773;SDS011;3931;42.260;23.116;2023-03-01T08:41:19;8.00;;;2.80;;
7773;SDS011;3931;42.260;23.116;2023-03-01T08:43:45;9.50;;;3.57;;
7773;SDS011;3931;42.260;23.116;2023-03-01T08:46:12;6.70;;;4.20;;
7773;SDS011;3931;42.260;23.116;2023-03-01T08:48:38;10.10;;;4.00;;
7773;SDS011;3931;42.260;23.116;2023-03-01T08:51:09;26.53;;;3.83;;
7773;SDS011;3931;42.260;23.116;2023-03-01T08:53:36;18.07;;;4.00;;
7773;SDS011;3931;42.260;23.116;2023-03-01T08:56:02;10.00;;;3.33;;
7773;SDS011;3931;42.260;23.116;2023-03-01T08:58:29;7.37;;;5.30;;
7773;SDS011;3931;42.260;23.116;2023-03-01T09:00:55;20.30;;;2.80;;
7773;SDS011;3931;42.260;23.116;2023-03-01T09:03:22;10.00;;;3.40;;
7773;SDS011;3931;42.260;23.116;2023-03-01T09:05:49;6.77;;;3.63;;
7773;SDS011;3931;42.260;23.116;2023-03-01T09:08:15;7.73;;;3.47;;
7773;SDS011;3931;42.260;23.116;2023-03-01T09:10:41;13.33;;;7.50;;
7773;SDS011;3931;42.260;23.116;2023-03-01T09:13:08;4.53;;;3.57;;
7773;SDS011;3931;42.260;23.116;2023-03-01T09:15:35;13.63;;;3.37;;
7773;SDS011;3931;42.260;23.116;2023-03-01T09:18:02;98.03;;;6.67;;
7773;SDS011;3931;42.260;23.116;2023-03-01T09:20:29;4.67;;;2.70;;
7773;SDS011;3931;42.260;23.116;2023-03-01T09:22:56;22.17;;;3.63;;
7773;SDS011;3931;42.260;23.116;2023-03-01T09:25:22;19.93;;;2.90;;
7773;SDS011;3931;42.260;23.116;2023-03-01T09:27:50;32.13;;;3.07;;
7773;SDS011;3931;42.260;23.116;2023-03-01T09:30:17;15.80;;;3.27;;
7773;SDS011;3931;42.260;23.116;2023-03-01T09:32:43;6.00;;;3.70;;
7773;SDS011;3931;42.260;23.116;2023-03-01T09:35:10;24.27;;;4.20;;
7773;SDS011;3931;42.260;23.116;2023-03-01T09:37:37;19.10;;;7.27;;
7773;SDS011;3931;42.260;23.116;2023-03-01T09:40:04;6.70;;;3.80;;
7773;SDS011;3931;42.260;23.116;2023-03-01T09:42:32;6.33;;;2.60;;
7773;SDS011;3931;42.260;23.116;2023-03-01T09:45:00;5.63;;;3.07;;
7773;SDS011;3931;42.260;23.116;2023-03-01T09:47:29;10.17;;;3.93;;
7773;SDS011;3931;42.260;23.116;2023-03-01T09:49:59;7.03;;;3.30;;
7773;SDS011;3931;42.260;23.116;2023-03-01T09:52:33;12.17;;;2.27;;
7773;SDS011;3931;42.260;23.116;2023-03-01T09:55:08;15.53;;;3.77;;
7773;SDS011;3931;42.260;23.116;2023-03-01T09:57:39;3.57;;;2.73;;
7773;SDS011;3931;42.260;23.116;2023-03-01T10:00:17;32.73;;;3.73;;
7773;SDS011;3931;42.260;23.116;2023-03-01T10:02:48;46.57;;;4.80;;
7773;SDS011;3931;42.260;23.116;2023-03-01T10:08:21;32.73;;;4.50;;
7773;SDS011;3931;42.260;23.116;2023-03-01T10:10:55;10.13;;;3.37;;
7773;SDS011;3931;42.260;23.116;2023-03-01T10:13:21;9.60;;;3.63;;
7773;SDS011;3931;42.260;23.116;2023-03-01T10:15:53;11.30;;;4.00;;
7773;SDS011;3931;42.260;23.116;2023-03-01T10:18:23;16.47;;;5.07;;
7773;SDS011;3931;42.260;23.116;2023-03-01T10:20:53;10.40;;;3.13;;
7773;SDS011;3931;42.260;23.116;2023-03-01T10:23:22;11.00;;;3.50;;
7773;SDS011;3931;42.260;23.116;2023-03-01T10:25:54;53.07;;;5.10;;
7773;SDS011;3931;42.260;23.116;2023-03-01T10:28:31;29.87;;;5.33;;
7773;SDS011;3931;42.260;23.116;2023-03-01T10:31:07;9.23;;;4.30;;
7773;SDS011;3931;42.260;23.116;2023-03-01T10:33:37;7.70;;;3.57;;
7773;SDS011;3931;42.260;23.116;2023-03-01T10:36:04;21.03;;;4.40;;
7773;SDS011;3931;42.260;23.116;2023-03-01T10:38:31;79.20;;;7.30;;
7773;SDS011;3931;42.260;23.116;2023-03-01T10:41:14;28.27;;;4.93;;
7773;SDS011;3931;42.260;23.116;2023-03-01T10:43:43;5.30;;;3.50;;
7773;SDS011;3931;42.260;23.116;2023-03-01T10:51:39;31.20;;;3.90;;
7773;SDS011;3931;42.260;23.116;2023-03-01T10:54:14;5.63;;;3.43;;
7773;SDS011;3931;42.260;23.116;2023-03-01T10:56:46;27.13;;;5.03;;
7773;SDS011;3931;42.260;23.116;2023-03-01T10:59:19;6.93;;;4.03;;
7773;SDS011;3931;42.260;23.116;2023-03-01T11:02:01;28.37;;;3.80;;
7773;SDS011;3931;42.260;23.116;2023-03-01T11:04:41;25.23;;;4.10;;
7773;SDS011;3931;42.260;23.116;2023-03-01T11:07:22;13.07;;;3.60;;
7773;SDS011;3931;42.260;23.116;2023-03-01T11:09:48;5.73;;;3.70;;
7773;SDS011;3931;42.260;23.116;2023-03-01T11:12:15;7.57;;;4.07;;
7773;SDS011;3931;42.260;23.116;2023-03-01T11:14:46;9.70;;;3.53;;
7773;SDS011;3931;42.260;23.116;2023-03-01T11:17:15;10.03;;;4.20;;
7773;SDS011;3931;42.260;23.116;2023-03-01T11:19:44;9.90;;;4.37;;
7773;SDS011;3931;42.260;23.116;2023-03-01T11:22:25;14.83;;;4.00;;
7773;SDS011;3931;42.260;23.116;2023-03-01T11:24:53;39.77;;;5.40;;
7773;SDS011;3931;42.260;23.116;2023-03-01T11:27:21;9.70;;;3.63;;
7773;SDS011;3931;42.260;23.116;2023-03-01T11:29:51;6.17;;;3.87;;
7773;SDS011;3931;42.260;23.116;2023-03-01T11:32:19;91.60;;;6.17;;
7773;SDS011;3931;42.260;23.116;2023-03-01T11:34:51;9.90;;;3.50;;
7773;SDS011;3931;42.260;23.116;2023-03-01T11:37:26;18.93;;;4.50;;
7773;SDS011;3931;42.260;23.116;2023-03-01T11:40:02;14.40;;;3.77;;
7773;SDS011;3931;42.260;23.116;2023-03-01T11:42:40;83.13;;;6.63;;
7773;SDS011;3931;42.260;23.116;2023-03-01T11:45:13;43.10;;;5.57;;
7773;SDS011;3931;42.260;23.116;2023-03-01T11:47:52;22.33;;;4.87;;
7773;SDS011;3931;42.260;23.116;2023-03-01T11:50:28;65.60;;;6.33;;
7773;SDS011;3931;42.260;23.116;2023-03-01T11:53:09;10.90;;;3.60;;
7773;SDS011;3931;42.260;23.116;2023-03-01T11:55:53;19.17;;;4.57;;
7773;SDS011;3931;42.260;23.116;2023-03-01T12:01:31;22.20;;;4.60;;
7773;SDS011;3931;42.260;23.116;2023-03-01T12:04:24;65.70;;;6.63;;
7773;SDS011;3931;42.260;23.116;2023-03-01T12:07:03;9.70;;;4.57;;
7773;SDS011;3931;42.260;23.116;2023-03-01T12:09:44;41.53;;;6.30;;
7773;SDS011;3931;42.260;23.116;2023-03-01T12:12:31;23.27;;;5.67;;
7773;SDS011;3931;42.260;23.116;2023-03-01T12:18:04;20.57;;;5.60;;
7773;SDS011;3931;42.260;23.116;2023-03-01T12:20:53;89.33;;;8.13;;
7773;SDS011;3931;42.260;23.116;2023-03-01T12:23:34;14.50;;;5.13;;
7773;SDS011;3931;42.260;23.116;2023-03-01T12:26:29;63.60;;;7.97;;
7773;SDS011;3931;42.260;23.116;2023-03-01T12:29:10;25.30;;;5.07;;
7773;SDS011;3931;42.260;23.116;2023-03-01T12:32:01;61.30;;;8.10;;
7773;SDS011;3931;42.260;23.116;2023-03-01T12:34:58;17.00;;;6.10;;
7773;SDS011;3931;42.260;23.116;2023-03-01T12:37:40;20.20;;;5.90;;
7773;SDS011;3931;42.260;23.116;2023-03-01T12:40:24;10.17;;;6.07;;
7773;SDS011;3931;42.260;23.116;2023-03-01T12:43:26;19.23;;;6.37;;
7773;SDS011;3931;42.260;23.116;2023-03-01T12:46:06;28.30;;;6.03;;
7773;SDS011;3931;42.260;23.116;2023-03-01T12:48:43;25.10;;;5.90;;
7773;SDS011;3931;42.260;23.116;2023-03-01T12:51:19;26.33;;;7.50;;
7773;SDS011;3931;42.260;23.116;2023-03-01T12:53:49;12.83;;;6.10;;
7773;SDS011;3931;42.260;23.116;2023-03-01T12:56:17;22.50;;;6.17;;
7773;SDS011;3931;42.260;23.116;2023-03-01T12:58:49;16.53;;;5.37;;
7773;SDS011;3931;42.260;23.116;2023-03-01T13:01:26;23.03;;;5.60;;
7773;SDS011;3931;42.260;23.116;2023-03-01T13:04:06;5.23;;;4.20;;
7773;SDS011;3931;42.260;23.116;2023-03-01T13:06:43;34.10;;;5.97;;
7773;SDS011;3931;42.260;23.116;2023-03-01T13:09:18;7.33;;;4.50;;
7773;SDS011;3931;42.260;23.116;2023-03-01T13:11:48;14.13;;;7.23;;
7773;SDS011;3931;42.260;23.116;2023-03-01T13:17:03;12.63;;;6.43;;
7773;SDS011;3931;42.260;23.116;2023-03-01T13:23:00;15.27;;;4.83;;
7773;SDS011;3931;42.260;23.116;2023-03-01T13:25:31;54.50;;;5.93;;
7773;SDS011;3931;42.260;23.116;2023-03-01T13:34:47;11.07;;;4.50;;
7773;SDS011;3931;42.260;23.116;2023-03-01T13:37:22;3.90;;;3.50;;
7773;SDS011;3931;42.260;23.116;2023-03-01T13:39:52;13.37;;;4.50;;
7773;SDS011;3931;42.260;23.116;2023-03-01T13:42:32;35.57;;;5.30;;
7773;SDS011;3931;42.260;23.116;2023-03-01T13:45:02;21.33;;;5.23;;
7773;SDS011;3931;42.260;23.116;2023-03-01T13:47:31;11.40;;;5.47;;
7773;SDS011;3931;42.260;23.116;2023-03-01T13:50:00;64.03;;;8.20;;
7773;SDS011;3931;42.260;23.116;2023-03-01T13:52:33;22.53;;;7.60;;
7773;SDS011;3931;42.260;23.116;2023-03-01T13:55:13;35.00;;;7.67;;
7773;SDS011;3931;42.260;23.116;2023-03-01T13:57:44;38.53;;;7.00;;
7773;SDS011;3931;42.260;23.116;2023-03-01T14:00:24;22.00;;;6.87;;
7773;SDS011;3931;42.260;23.116;2023-03-01T14:02:59;28.97;;;5.87;;
7773;SDS011;3931;42.260;23.116;2023-03-01T14:05:27;9.23;;;7.10;;
7773;SDS011;3931;42.260;23.116;2023-03-01T14:07:53;23.50;;;6.43;;
7773;SDS011;3931;42.260;23.116;2023-03-01T14:10:20;6.90;;;5.03;;
7773;SDS011;3931;42.260;23.116;2023-03-01T14:12:47;26.40;;;7.20;;
7773;SDS011;3931;42.260;23.116;2023-03-01T14:15:22;11.27;;;6.40;;
7773;SDS011;3931;42.260;23.116;2023-03-01T14:17:59;11.90;;;6.63;;
7773;SDS011;3931;42.260;23.116;2023-03-01T14:20:30;16.30;;;5.90;;
7773;SDS011;3931;42.260;23.116;2023-03-01T14:23:01;9.67;;;5.60;;
7773;SDS011;3931;42.260;23.116;2023-03-01T14:25:35;32.93;;;7.40;;
7773;SDS011;3931;42.260;23.116;2023-03-01T14:28:04;9.77;;;5.77;;
7773;SDS011;3931;42.260;23.116;2023-03-01T14:30:41;37.73;;;6.60;;
7773;SDS011;3931;42.260;23.116;2023-03-01T14:33:17;22.00;;;6.17;;
7773;SDS011;3931;42.260;23.116;2023-03-01T14:35:52;17.00;;;7.80;;
7773;SDS011;3931;42.260;23.116;2023-03-01T14:38:20;12.50;;;6.87;;
7773;SDS011;3931;42.260;23.116;2023-03-01T14:40:47;15.13;;;6.23;;
7773;SDS011;3931;42.260;23.116;2023-03-01T14:43:19;32.43;;;8.87;;
7773;SDS011;3931;42.260;23.116;2023-03-01T14:45:48;30.07;;;8.43;;
7773;SDS011;3931;42.260;23.116;2023-03-01T14:48:16;120.90;;;13.00;;
7773;SDS011;3931;42.260;23.116;2023-03-01T14:50:43;59.40;;;10.03;;
7773;SDS011;3931;42.260;23.116;2023-03-01T14:53:14;56.53;;;9.87;;
7773;SDS011;3931;42.260;23.116;2023-03-01T14:55:44;58.47;;;10.80;;
7773;SDS011;3931;42.260;23.116;2023-03-01T14:58:14;28.03;;;8.47;;
7773;SDS011;3931;42.260;23.116;2023-03-01T15:00:45;45.07;;;6.90;;
7773;SDS011;3931;42.260;23.116;2023-03-01T15:03:17;22.63;;;5.87;;
7773;SDS011;3931;42.260;23.116;2023-03-01T15:05:53;29.87;;;7.60;;
7773;SDS011;3931;42.260;23.116;2023-03-01T15:08:20;10.07;;;4.90;;
7773;SDS011;3931;42.260;23.116;2023-03-01T15:10:56;106.27;;;10.53;;
7773;SDS011;3931;42.260;23.116;2023-03-01T15:13:26;12.60;;;5.47;;
7773;SDS011;3931;42.260;23.116;2023-03-01T15:16:00;33.93;;;7.73;;
7773;SDS011;3931;42.260;23.116;2023-03-01T15:18:32;12.10;;;6.80;;
7773;SDS011;3931;42.260;23.116;2023-03-01T15:21:05;6.27;;;5.40;;
7773;SDS011;3931;42.260;23.116;2023-03-01T15:23:33;19.33;;;6.83;;
7773;SDS011;3931;42.260;23.116;2023-03-01T15:26:01;33.10;;;9.57;;
7773;SDS011;3931;42.260;23.116;2023-03-01T15:28:30;13.45;;;6.50;;
7773;SDS011;3931;42.260;23.116;2023-03-01T15:30:58;18.00;;;7.90;;
7773;SDS011;3931;42.260;23.116;2023-03-01T15:33:30;11.87;;;6.97;;
7773;SDS011;3931;42.260;23.116;2023-03-01T15:36:00;22.03;;;7.50;;